Time,TemperatureF,DewpointF,PressureIn,WindDirection,WindDirectionDegrees,WindSpeedMPH,WindSpeedGustMPH,Humidity,HourlyPrecipIn,Conditions,Clouds,dailyrainin,SoftwareType,DateUTC
2013-08-20 00:03:00,62.6,-99.9,-100.00,North,-999,0.0,0.0,-999,0.00,,,-99.99,WeatherLink 5.4,2013-08-20 04:03:00,
2013-08-20 00:33:00,62.1,-99.9,-100.00,North,-999,0.0,0.0,-999,0.00,,,-99.99,WeatherLink 5.4,2013-08-20 04:33:00,
2013-08-20 01:03:00,62.1,-99.9,-100.00,North,-999,0.0,0.0,-999,0.00,,,-99.99,WeatherLink 5.4,2013-08-20 05:03:00,
2013-08-20 01:33:00,61.9,-99.9,-100.00,North,-999,0.0,0.0,-999,0.00,,,-99.99,WeatherLink 5.4,2013-08-20 05:33:00,
2013-08-20 02:03:00,61.4,-99.9,-100.00,North,-999,0.0,0.0,-999,0.00,,,-99.99,WeatherLink 5.4,2013-08-20 06:03:00,
2013-08-20 02:33:00,61.2,-99.9,-100.00,North,-999,0.0,0.0,-999,0.00,,,-99.99,WeatherLink 5.4,2013-08-20 06:33:00,
2013-08-20 03:03:00,60.9,-99.9,-100.00,North,-999,0.0,0.0,-999,0.00,,,-99.99,WeatherLink 5.4,2013-08-20 07:03:00,
2013-08-20 03:33:00,61.0,-99.9,-100.00,North,-999,0.0,0.0,-999,0.00,,,-99.99,WeatherLink 5.4,2013-08-20 07:33:00,
2013-08-20 04:03:00,61.4,-99.9,-100.00,North,-999,0.0,0.0,-999,0.00,,,-99.99,WeatherLink 5.4,2013-08-20 08:03:00,
2013-08-20 04:33:00,61.6,-99.9,-100.00,North,0,0.0,2.0,-999,0.00,,,-99.99,WeatherLink 5.4,2013-08-20 08:33:00,
2013-08-20 05:03:00,62.7,-99.9,-100.00,North,-999,0.0,0.0,-999,0.00,,,-99.99,WeatherLink 5.4,2013-08-20 09:03:00,
2013-08-20 05:33:00,62.8,-99.9,-100.00,North,0,0.0,2.0,-999,0.00,,,-99.99,WeatherLink 5.4,2013-08-20 09:33:00,
2013-08-20 06:03:00,62.6,-99.9,-100.00,North,-999,0.0,0.0,-999,0.00,,,-99.99,WeatherLink 5.4,2013-08-20 10:03:00,
2013-08-20 06:33:00,62.9,-99.9,-100.00,North,-999,0.0,0.0,-999,0.00,,,-99.99,WeatherLink 5.4,2013-08-20 10:33:00,
2013-08-20 07:03:00,62.5,-99.9,-100.00,North,-999,0.0,0.0,-999,0.00,,,-99.99,WeatherLink 5.4,2013-08-20 11:03:00,
2013-08-20 07:33:00,62.1,-99.9,-100.00,North,-999,0.0,0.0,-999,0.00,,,-99.99,WeatherLink 5.4,2013-08-20 11:33:00,
2013-08-20 08:03:00,62.7,-99.9,-100.00,North,-999,0.0,0.0,-999,0.00,,,-99.99,WeatherLink 5.4,2013-08-20 12:03:00,
2013-08-20 08:33:00,63.7,-99.9,-100.00,WNW,292,0.0,3.0,-999,0.00,,,-99.99,WeatherLink 5.4,2013-08-20 12:33:00,
2013-08-20 09:03:00,65.4,-99.9,-100.00,WSW,247,1.0,5.0,-999,0.00,,,-99.99,WeatherLink 5.4,2013-08-20 13:03:00,
2013-08-20 09:33:00,67.0,-99.9,-100.00,WSW,247,0.0,5.0,-999,0.00,,,-99.99,WeatherLink 5.4,2013-08-20 13:33:00,
2013-08-20 10:03:00,67.9,-99.9,-100.00,WSW,247,0.0,4.0,-999,0.00,,,-99.99,WeatherLink 5.4,2013-08-20 14:03:00,
2013-08-20 10:33:00,69.6,-99.9,-100.00,WSW,247,0.0,4.0,-999,0.00,,,-99.99,WeatherLink 5.4,2013-08-20 14:33:00,
2013-08-20 11:33:00,72.1,-99.9,-100.00,WSW,247,0.0,4.0,-999,0.00,,,-99.99,WeatherLink 5.4,2013-08-20 15:33:00,
2013-08-20 12:03:00,74.4,-99.9,-100.00,WNW,292,0.0,4.0,-999,0.00,,,-99.99,WeatherLink 5.4,2013-08-20 16:03:00,
2013-08-20 13:03:00,75.7,-99.9,-100.00,WNW,292,0.0,5.0,-999,0.00,,,-99.99,WeatherLink 5.4,2013-08-20 17:03:00,
2013-08-20 13:33:00,83.8,-99.9,-100.00,NNW,337,0.0,6.0,-999,0.00,,,-99.99,WeatherLink 5.4,2013-08-20 17:33:00,
2013-08-20 14:03:00,82.7,-99.9,-100.00,North,0,0.0,4.0,-999,0.00,,,-99.99,WeatherLink 5.4,2013-08-20 18:03:00,
2013-08-20 14:33:00,83.2,-99.9,-100.00,North,0,0.0,3.0,-999,0.00,,,-99.99,WeatherLink 5.4,2013-08-20 18:33:00,
2013-08-20 15:03:00,81.2,-99.9,-100.00,WNW,292,0.0,6.0,-999,0.00,,,-99.99,WeatherLink 5.4,2013-08-20 19:03:00,
2013-08-20 15:33:00,82.7,-99.9,-100.00,NW,315,0.0,5.0,-999,0.00,,,-99.99,WeatherLink 5.4,2013-08-20 19:33:00,
2013-08-20 16:03:00,82.5,-99.9,-100.00,NW,315,0.0,4.0,-999,0.00,,,-99.99,WeatherLink 5.4,2013-08-20 20:03:00,
2013-08-20 16:33:00,82.8,-99.9,-100.00,NW,315,0.0,4.0,-999,0.00,,,-99.99,WeatherLink 5.4,2013-08-20 20:33:00,
2013-08-20 17:03:00,81.0,-99.9,-100.00,NW,315,0.0,1.0,-999,0.00,,,-99.99,WeatherLink 5.4,2013-08-20 21:03:00,
2013-08-20 17:33:00,83.0,-99.9,-100.00,NW,315,0.0,2.0,-999,0.00,,,-99.99,WeatherLink 5.4,2013-08-20 21:33:00,
2013-08-20 18:03:00,83.3,-99.9,-100.00,NNW,337,0.0,4.0,-999,0.00,,,-99.99,WeatherLink 5.4,2013-08-20 22:03:00,
2013-08-20 18:33:00,81.9,-99.9,-100.00,NNW,337,0.0,4.0,-999,0.00,,,-99.99,WeatherLink 5.4,2013-08-20 22:33:00,
2013-08-20 19:03:00,81.1,-99.9,-100.00,North,0,0.0,4.0,-999,0.00,,,-99.99,WeatherLink 5.4,2013-08-20 23:03:00,
2013-08-20 19:33:00,79.8,-99.9,-100.00,North,0,0.0,5.0,-999,0.00,,,-99.99,WeatherLink 5.4,2013-08-20 23:33:00,
2013-08-20 20:03:00,78.5,-99.9,-100.00,NNE,22,0.0,2.0,-999,0.00,,,-99.99,WeatherLink 5.4,2013-08-21 00:03:00,
2013-08-20 20:33:00,76.3,-99.9,-100.00,North,-999,0.0,0.0,-999,0.00,,,-99.99,WeatherLink 5.4,2013-08-21 00:33:00,
2013-08-20 21:03:00,73.0,-99.9,-100.00,North,-999,0.0,0.0,-999,0.00,,,-99.99,WeatherLink 5.4,2013-08-21 01:03:00,
2013-08-20 21:33:00,70.7,-99.9,-100.00,North,-999,0.0,0.0,-999,0.00,,,-99.99,WeatherLink 5.4,2013-08-21 01:33:00,
2013-08-20 22:03:00,69.5,-99.9,-100.00,North,-999,0.0,0.0,-999,0.00,,,-99.99,WeatherLink 5.4,2013-08-21 02:03:00,
2013-08-20 22:33:00,68.9,-99.9,-100.00,North,-999,0.0,0.0,-999,0.00,,,-99.99,WeatherLink 5.4,2013-08-21 02:33:00,
2013-08-20 23:03:00,68.6,-99.9,-100.00,North,-999,0.0,0.0,-999,0.00,,,-99.99,WeatherLink 5.4,2013-08-21 03:03:00,
2013-08-20 23:33:00,68.2,-99.9,-100.00,North,-999,0.0,0.0,-999,0.00,,,-99.99,WeatherLink 5.4,2013-08-21 03:33:00,